Weather observations for the past three days for
Charlotte, Fitch H Beach Airport
Metric (Imperial)
Date Time (edt) Wind (kph) Vis. (km) Weather Sky Cond. Temperature (ºC) Relative Humidity Wind Chill (°C) Heat Index (°C) Pressure Precipitation (cm)
Air Dwpt 6 hour altimeter (cm) sea level (mb) 1 hr 3 hr 6 hr
Max. Min.
03 07:16 S 4 1.21 Fog/Mist VV005 20 20 100% 76.1 0.0
03 06:56 SE 2 1.61 Fog/Mist CLR 21 21 100% 76.07 0.0
03 06:35 S 2 4.83 Fog/Mist CLR 21 20 94% 76.07 0.0
03 06:15 Calm 0.80 Fog VV005 21 20 94% 76.07 0.0
03 05:55 E 2 1.61 Fog/Mist CLR 21 21 100% 76.05 0.0
03 05:35 S 2 6.44 Fog/Mist CLR 21 21 100% 76.05 0.0
03 05:15 S 2 0.40 Fog BKN095 21 21 100% 76.05 0.0
03 04:56 E 2 2.82 Fog/Mist SCT060 BKN095 21 21 100% 76.05 0.0
03 04:36 S 2 1.21 Fog/Mist BKN060 21 21 100% 76.05 0.0
03 04:15 S 2 9.66 Fog/Mist FEW110 22 22 100% 76.05 0.0
03 03:56 SW 2 6.44 Fog/Mist SCT100 22 21 94% 76.05 0.0
03 03:35 W 4 8.05 Fog/Mist SCT100 23 22 94% 76.05 0.0
03 03:15 Vrbl 2 8.05 Fog/Mist CLR 22 22 100% 76.05 0.0
03 02:55 Calm 12.87 A Few Clouds FEW100 23 22 94% 76.05 0.0
03 02:35 NE 6 12.87 A Few Clouds FEW100 23 22 94% 76.05 0.0
03 02:15 NE 4 11.27 Fair CLR 23 22 94% 76.05 0.0
03 01:56 S 2 11.27 Partly Cloudy SCT100 23 22 29.2 22.5 94% 76.02 0.0
03 01:36 S 4 12.87 Mostly Cloudy BKN100 BKN120 23 23 100% 76.02 0.0
03 01:15 SE 2 14.48 Mostly Cloudy BKN100 BKN120 23 22 94% 76.02 0.0
03 00:55 SW 2 16.09 Partly Cloudy SCT100 SCT120 24 23 94% 23 76.02 0.0
03 00:35 N 4 16.09 A Few Clouds FEW100 25 23 89% 26 76.02 0.0
03 00:15 Calm 16.09 A Few Clouds FEW100 FEW120 24 23 94% 23 76 0.0
02 23:55 SW 7 16.09 Partly Cloudy SCT120 25 23 89% 26 75.97 0.0
02 23:35 S 7 16.09 Mostly Cloudy BKN110 25 23 89% 26 75.97 0.0
02 23:16 NW 6 16.09 Partly Cloudy FEW070 SCT120 26 23 84% 28 76 0.0
02 22:55 W 7 16.09 Fair CLR 26 23 84% 28 76 0.0
02 22:35 NW 9 16.09 Fair CLR 25 23 89% 26 76 0.0
02 22:15 W 4 16.09 Fair CLR 24 23 94% 23 76 0.0
02 21:55 E 2 16.09 A Few Clouds FEW100 25 23 89% 26 76 0.0
02 21:35 Calm 16.09 Fair CLR 25 24 94% 26 76 0.0
02 21:15 Calm 12.87 Fair CLR 25 23 89% 26 75.97 0.0
02 20:55 Calm 16.09 Fair CLR 25 23 89% 26 75.97 0.0
02 20:35 Calm 16.09 Fair CLR 26 23 84% 28 75.95 0.0
02 20:15 S 6 16.09 Fair CLR 27 23 79% 30 75.95 0.0
02 19:55 S 4 16.09 Fair CLR 29 23 33 29.1 70% 33 75.95 0.0
02 19:35 NW 4 16.09 Fair CLR 30 22 62% 33 75.95 0.0
02 19:15 W 4 16.09 Partly Cloudy SCT110 30 22 62% 33 75.95 0.0
02 18:56 W 9 16.09 Partly Cloudy SCT110 31 22 59% 35 75.95 0.0
02 18:35 W 11 16.09 A Few Clouds FEW120 32 22 55% 36 75.95 0.0
02 18:15 SW 13 16.09 Fair CLR 32 22 55% 36 75.92 0.0
02 17:55 SW 19 16.09 Fair CLR 32 21 52% 35 75.92 0.0
02 17:35 SW 20 G 28 16.09 Fair CLR 33 22 52% 37 75.92 0.0
02 17:16 SW 19 16.09 Fair CLR 32 22 55% 36 75.95 0.0
02 16:56 SW 19 16.09 Fair CLR 33 22 52% 37 75.95 0.0
02 16:35 S 22 G 35 16.09 Fair CLR 33 22 52% 37 75.95 0.0
02 16:15 S 19 G 28 16.09 Fair CLR 33 23 56% 38 75.97 0.0
02 15:55 SW 13 16.09 Fair CLR 32 22 55% 36 76 0.0
02 15:35 SW 15 16.09 Fair CLR 33 23 56% 38 76.02 0.0
02 15:15 W 13 16.09 Fair CLR 33 22 52% 37 76.07 0.0
02 14:55 W 11 16.09 Fair CLR 33 23 56% 38 76.07 0.0
02 14:36 SW 17 16.09 Fair CLR 32 22 55% 36 76.07 0.0
02 14:16 SW 20 16.09 Fair CLR 32 24 63% 38 76.07 0.0
02 13:56 SW 13 16.09 Fair CLR 32 24 31.7 22.9 63% 38 76.1 0.0
02 13:35 S 13 16.09 Fair CLR 31 24 66% 37 76.1 0.0
02 13:15 S 19 16.09 Fair CLR 30 24 70% 35 76.1 0.0
02 12:55 S 17 16.09 Fair CLR 30 24 70% 35 76.1 0.0
02 12:35 S 13 16.09 A Few Clouds FEW100 30 23 66% 34 76.12 0.0
02 12:15 SW 7 16.09 A Few Clouds FEW100 31 24 66% 37 76.15 0.0
02 11:55 SW 9 16.09 Fair CLR 30 23 66% 34 76.15 0.0
02 11:35 SW 13 16.09 Fair CLR 30 23 66% 34 76.15 0.0
02 11:15 W 11 G 26 16.09 Fair CLR 29 23 70% 33 76.17 0.0
02 10:56 SW 15 G 26 16.09 Fair CLR 29 23 70% 33 76.12 0.0
02 10:35 SW 13 16.09 Fair CLR 28 23 74% 31 76.12 0.0
02 10:15 SW 11 16.09 Fair CLR 28 23 74% 31 76.1 0.0
02 09:35 SW 11 16.09 Fair CLR 26 23 84% 28 76.12 0.0
02 09:15 SW 13 16.09 Fair CLR 26 23 84% 28 76.12 0.0
02 08:55 S 7 16.09 Fair CLR 25 23 89% 26 76.12 0.0
02 08:35 SW 7 16.09 Fair CLR 24 23 94% 23 76.15 0.0
02 08:16 S 6 9.66 Fog/Mist CLR 24 23 94% 23 76.15 0.0
02 07:56 S 7 6.44 Fog/Mist CLR 23 22 24.5 21.9 94% 76.15 0.0
02 07:35 SW 11 8.05 Fog/Mist CLR 23 22 94% 76.15 0.0
02 07:16 SW 6 6.44 Fog/Mist CLR 23 22 94% 76.15 0.0
02 06:55 S 9 8.05 Fog/Mist CLR 23 22 94% 76.15 0.0
02 06:35 SW 9 11.27 Fair CLR 23 22 94% 76.15 0.0
02 06:15 SW 7 11.27 Fair CLR 23 22 94% 76.15 0.0
02 05:55 SW 7 14.48 Fair CLR 23 23 100% 76.12 0.0
02 05:35 SW 4 14.48 Fair CLR 23 23 100% 76.12 0.0
02 05:15 SW 6 16.09 Fair CLR 24 23 94% 23 76.12 0.0
02 04:55 SW 9 16.09 Fair CLR 24 23 94% 23 76.1 0.0
02 04:35 SW 7 16.09 A Few Clouds FEW120 24 23 94% 23 76.07 0.0
02 04:15 SW 9 16.09 Partly Cloudy SCT110 24 23 94% 23 76.07 0.0
02 03:56 SW 6 11.27 Mostly Cloudy BKN110 23 23 100% 76.1 0.0
02 03:35 SW 6 14.48 A Few Clouds FEW100 FEW120 24 23 94% 23 76.1 0.0
02 03:15 SW 4 12.87 Fair CLR 24 23 94% 23 76.07 0.0
02 02:55 SW 7 12.87 Fair CLR 24 23 94% 23 76.07 0.0
02 02:35 SW 7 14.48 Fair CLR 24 23 94% 23 76.07 0.0
02 02:16 SW 9 12.87 Fair CLR 24 23 94% 23 76.07 0.0
02 01:55 SW 11 12.87 Fair CLR 24 23 27.1 21.4 94% 23 76.07 0.0
02 01:35 S 6 9.66 Fog/Mist CLR 23 22 94% 76.07 0.0
02 01:15 S 7 11.27 Fog/Mist CLR 22 22 100% 76.1 0.0
02 00:56 S 6 8.05 Fog/Mist CLR 22 21 94% 76.1 0.0
02 00:36 S 4 9.66 Fog/Mist CLR 22 22 100% 76.1 0.0
02 00:16 S 6 8.05 Fog/Mist CLR 22 22 100% 76.12 0.0
01 23:55 S 2 4.83 Fog/Mist CLR 22 22 100% 76.1 0.0
01 23:35 E 2 9.66 Fog/Mist CLR 22 22 100% 76.1 0.0
01 23:15 S 2 16.09 A Few Clouds FEW110 23 22 94% 76.1 0.0
01 22:55 Calm 16.09 Partly Cloudy SCT110 24 22 89% 24 76.1 0.0
01 22:35 NE 2 16.09 Fair CLR 24 22 89% 24 76.12 0.0
01 22:15 Calm 16.09 Fair CLR 23 22 94% 76.12 0.0
01 21:55 S 4 16.09 Fair CLR 23 22 94% 76.1 0.0
01 21:35 S 6 16.09 Fair CLR 24 23 94% 23 76.07 0.0
01 21:15 S 6 16.09 Fair CLR 24 22 89% 24 76.07 0.0
01 20:55 SW 7 16.09 Light Rain FEW029 FEW037 FEW090 25 23 89% 26 76.07 0.0
01 20:35 S 7 16.09 Fair CLR 25 23 89% 26 76.1 0.0
01 20:15 SW 6 16.09 Fair CLR 26 22 79% 28 76.1 0.0
01 19:55 SW 6 16.09 Fair CLR 27 22 31.8 26.7 74% 29 76.1 0.0
01 19:36 SW 6 16.09 Fair CLR 27 22 74% 29 76.1 0.0
01 19:15 SW 6 16.09 Fair CLR 27 22 74% 29 76.1 0.0
01 18:55 W 11 16.09 Fair CLR 28 22 70% 31 76.15 0.0
01 18:35 W 13 16.09 Fair CLR 28 22 70% 31 76.15 0.0
01 18:15 W 13 16.09 Fair CLR 29 23 70% 33 76.12 0.0
01 17:55 SW 13 16.09 Fair CLR 29 23 70% 33 76.12 0.0
01 17:35 W 19 16.09 Fair CLR 30 24 70% 35 76.1 0.0
01 17:15 SW 13 16.09 Fair CLR 31 23 62% 35 76.07 0.0
01 16:55 W 15 16.09 Fair CLR 31 23 62% 35 76.07 0.0
01 16:36 SW 20 G 26 16.09 A Few Clouds FEW034 FEW043 31 23 62% 35 76.05 0.0
01 16:15 W 20 16.09 Partly Cloudy SCT034 31 24 66% 37 76.07 0.0
01 15:55 SW 13 G 28 16.09 A Few Clouds FEW032 31 24 66% 37 76.07 0.0
01 15:35 W 17 16.09 Fair CLR 31 24 66% 37 76.07 0.0
01 15:15 SW 17 16.09 A Few Clouds FEW035 31 23 62% 35 76.1 0.0
01 14:55 W 17 16.09 Partly Cloudy SCT035 31 24 66% 37 76.1 0.0
01 14:35 W 19 G 33 16.09 Mostly Cloudy BKN033 31 24 66% 37 76.12 0.0
01 14:15 W 13 G 26 16.09 Partly Cloudy SCT031 31 24 66% 37 76.12 0.0
01 13:55 W 11 16.09 Mostly Cloudy BKN029 BKN035 31 24 31.1 21.1 66% 37 76.12 0.0
01 13:35 SW 15 16.09 Mostly Cloudy BKN027 30 24 70% 35 76.1 0.0
01 13:15 SW 15 16.09 A Few Clouds FEW025 30 24 70% 35 76.1 0.0
01 12:55 W 9 16.09 A Few Clouds FEW025 30 24 70% 35 76.1 0.0
01 12:35 W 11 16.09 Fair CLR 29 24 74% 34 76.12 0.0
01 12:16 Vrbl 7 16.09 Fair CLR 30 24 70% 35 76.12 0.0
01 11:55 Vrbl 6 16.09 Fair CLR 29 24 74% 34 76.12 0.0
01 11:35 SW 9 16.09 Fair CLR 29 24 74% 34 76.15 0.0
01 11:15 SW 13 16.09 Fair CLR 28 24 79% 32 76.15 0.0
01 10:35 SW 7 16.09 Fair CLR 27 23 79% 30 76.15 0.0
01 10:15 SW 7 16.09 Fair CLR 26 22 79% 28 76.15 0.0
01 09:55 SW 7 16.09 Fair CLR 26 22 79% 28 76.15 0.0
01 09:35 SW 9 16.09 Fair CLR 25 22 83% 26 76.15 0.0
01 09:15 SW 9 16.09 A Few Clouds FEW120 24 21 83% 24 76.15 0.0
01 08:55 SW 9 16.09 A Few Clouds FEW120 23 21 89% 76.15 0.0
01 08:35 S 7 16.09 Fair CLR 23 21 89% 76.12 0.0
01 08:15 S 7 16.09 Fair CLR 22 21 94% 76.12 0.0
01 07:55 S 7 16.09 Fair CLR 21 20 22.1 18.9 94% 76.12 0.0
01 07:35 S 7 14.48 Fair CLR 21 20 94% 76.12 0.0
01 07:15 SW 7 14.48 Fair CLR 21 20 94% 76.1 0.0
01 06:35 S 4 6.44 Fog/Mist CLR 20 20 100% 76.1 0.0
01 06:15 S 4 9.66 Fog/Mist CLR 20 20 100% 76.07 0.0
01 05:55 S 4 12.87 Fair CLR 21 20 94% 76.07 0.0
01 05:35 S 4 0.80 Fog VV005 19 19 100% 76.07 0.0
01 05:15 S 4 9.66 Fog/Mist CLR 21 21 100% 76.07 0.0
01 04:55 S 4 11.27 Fog/Mist CLR 21 21 100% 76.07 0.0
01 04:35 S 4 9.66 Fog/Mist CLR 20 20 100% 76.07 0.0
01 04:15 S 6 12.87 Fair CLR 21 21 100% 76.07 0.0
01 03:55 S 6 14.48 Fair CLR 21 21 100% 76.07 0.0
01 03:35 S 9 14.48 Fair CLR 21 21 100% 76.07 0.0
01 03:15 S 9 14.48 Fair CLR 22 21 94% 76.07 0.0
01 02:55 SW 6 16.09 Fair CLR 22 21 94% 76.07 0.0
01 02:35 S 9 16.09 Fair CLR 22 21 94% 76.07 0.0
01 02:15 SW 7 14.48 Fair CLR 21 21 100% 76.07 0.0
01 01:55 S 4 11.27 Fog/Mist CLR 21 20 23.5 20.9 94% 76.07 0.0
01 01:35 SW 6 16.09 Fair CLR 22 21 94% 76.1 0.0
01 01:15 SW 6 14.48 Fair CLR 22 21 94% 76.07 0.0
01 00:55 S 7 16.09 Fair CLR 22 21 94% 76.07 0.0
01 00:35 S 7 16.09 Fair CLR 23 21 89% 76.07 0.0
01 00:15 SW 6 16.09 Fair CLR 23 22 94% 76.07 0.0
31 23:55 SW 9 16.09 Fair CLR 23 22 94% 76.05 0.0
31 23:35 SW 9 16.09 Fair CLR 23 21 89% 76.05 0.0
31 23:15 S 6 16.09 Fair CLR 22 21 94% 76.05 0.0
31 22:55 S 7 16.09 Fair CLR 22 21 94% 76.07 0.0
31 22:35 SW 6 16.09 Fair CLR 23 21 89% 76.1 0.0
31 22:15 SW 9 16.09 Fair CLR 22 21 94% 76.1 0.0
31 21:55 SW 9 16.09 Fair CLR 22 20 88% 76.1 0.0
31 21:35 SW 6 16.09 Fair CLR 22 20 88% 76.1 0.0
31 21:15 SW 11 16.09 Fair CLR 23 20 83% 76.07 0.0
31 20:55 SW 11 16.09 Fair CLR 23 20 83% 76.05 0.0
31 20:35 SW 13 16.09 Fair CLR 23 20 83% 76.05 0.0
31 20:15 S 11 16.09 Fair CLR 23 21 89% 76.02 0.0
31 19:55 S 13 16.09 Fair CLR 23 20 28.1 21.9 83% 76.02 0.0
31 19:35 S 13 16.09 Fair CLR 23 20 83% 76.05 0.0
31 19:15 S 15 16.09 Fair CLR 23 20 83% 76.02 0.0
31 18:35 S 15 16.09 Fair CLR 24 20 78% 24 76.05 0.0
31 18:15 S 13 16.09 Fair CLR 25 21 79% 26 76.05 0.0
31 17:55 S 11 16.09 Fair CLR 24 21 83% 24 76.05 0.0
31 17:35 S 11 16.09 Partly Cloudy FEW050 FEW065 SCT110 23 20 83% 76.05 0.0
31 17:15 SE 7 16.09 Partly Cloudy SCT110 24 20 78% 24 76.07 0.0
31 16:55 Vrbl 7 16.09 Light Rain FEW070 SCT090 SCT120 23 20 83% 76.1 0.0 0.2
31 16:35 SE 15 9.66 Rain Haze SCT070 BKN090 OVC120 23 20 83% 76.07 0.0
31 16:15 S 9 16.09 Light Rain FEW065 SCT100 BKN120 23 20 83% 76.15 0.0
31 15:55 S 15 16.09 Light Rain FEW048 BKN100 BKN120 23 22 94% 76.12 0.0 0.25
31 15:35 E 7 2.82 Rain Haze SCT028 SCT075 OVC100 25 21 79% 26 76.2 0.0
31 15:15 SW 11 16.09 Mostly Cloudy BKN100 26 20 70% 27 76.15 0.0
31 14:55 SW 19 G 31 16.09 A Few Clouds FEW110 27 20 66% 29 76.15 0.0
31 14:35 SW 17 16.09 A Few Clouds FEW100 27 20 66% 29 76.17 0.0
31 14:15 S 22 G 31 16.09 Mostly Cloudy BKN100 BKN120 28 20 62% 30 76.17 0.0
31 13:55 S 19 G 31 16.09 Overcast OVC100 27 20 28.1 20 66% 29 76.17 0.0
31 13:35 SW 19 16.09 Overcast OVC110 27 21 70% 29 76.17 0.0
31 13:15 S 20 16.09 Overcast OVC120 27 20 66% 29 76.2 0.0
31 12:55 S 15 16.09 Mostly Cloudy FEW050 FEW065 BKN120 27 21 70% 29 76.23 0.0
31 12:35 S 13 16.09 Partly Cloudy SCT055 SCT080 SCT110 25 20 74% 26 76.25 0.0
31 12:15 S 15 16.09 Mostly Cloudy FEW090 BKN110 25 20 74% 26 76.25 0.0
31 11:55 S 15 16.09 Partly Cloudy FEW070 FEW100 SCT120 25 19 69% 26 76.28 0.0
31 11:35 Vrbl 7 16.09 Partly Cloudy SCT100 25 20 74% 26 76.3 0.0
31 11:15 Vrbl 11 16.09 A Few Clouds FEW070 FEW085 FEW100 25 21 79% 26 76.33 0.0
31 10:55 SW 11 16.09 A Few Clouds FEW070 FEW085 24 20 78% 24 76.3 0.0
31 10:35 SW 7 16.09 A Few Clouds FEW065 FEW095 23 20 83% 76.3 0.0
31 10:15 SW 9 16.09 Light Rain FEW050 SCT070 SCT095 23 20 83% 76.28 0.0
31 09:55 S 11 16.09 Fair CLR 23 20 83% 76.28 0.0
31 09:35 S 9 16.09 Fair CLR 23 20 83% 76.28 0.0
31 09:15 SW 7 16.09 Partly Cloudy SCT100 22 20 88% 76.28 0.0
31 08:55 S 11 16.09 Mostly Cloudy SCT100 BKN120 22 20 88% 76.23 0.0
31 08:35 S 6 16.09 Mostly Cloudy SCT090 BKN120 21 20 94% 76.2 0.0
31 08:15 S 7 16.09 A Few Clouds FEW100 FEW120 21 20 94% 76.23 0.0
31 07:55 S 6 16.09 Fair CLR 20 19 20.5 18.4 94% 76.23 0.0
31 07:35 S 4 9.66 Fog/Mist CLR 19 18 94% 76.23 0.0
Date Time (edt) Wind (kph) Vis. (km) Weather Sky Cond. Air Dwpt Max. Min. Relative Humidity Wind Chill (°C) Heat Index (°C) altimeter (cm) sea level (mb) 1 hr 3 hr 6 hr
6 hour
Temperature (ºC) Pressure Precipitation (cm)